Time;durP1;ratioP1;P1;durP2;ratioP2;P2;SDS_P1;SDS_P2;PMS_P1;PMS_P2;Temp;Humidity;BMP_temperature;BMP_pressure;BME280_temperature;BME280_humidity;BME280_pressure;Samples;Min_cycle;Max_cycle;Signal;HPM_P1;HPM_P2
2021/04/02 00:02:09;;;;;;;0.77;0.77;;;;;;;2.91;61.37;93348.03;5053302;28;20035;-44
2021/04/02 00:04:35;;;;;;;0.77;0.77;;;;;;;3.00;60.85;93347.00;5053186;28;20055;-50
2021/04/02 00:07:05;;;;;;;11.50;1.35;;;;;;;2.85;60.82;93341.84;5053591;28;20048;-46
2021/04/02 00:09:30;;;;;;;0.50;0.50;;;;;;;2.88;60.57;93345.56;5053560;28;20025;-45
2021/04/02 00:11:56;;;;;;;0.80;0.80;;;;;;;2.67;60.52;93333.47;5053211;28;20415;-47
2021/04/02 00:14:21;;;;;;;4.22;2.60;;;;;;;2.72;61.29;93330.00;5053292;28;20082;-48
2021/04/02 00:16:46;;;;;;;6.03;2.13;;;;;;;2.51;61.82;93329.56;5053445;28;20417;-45
2021/04/02 00:19:12;;;;;;;1.70;1.60;;;;;;;2.54;62.06;93322.38;5053026;28;20033;-44
2021/04/02 00:21:37;;;;;;;0.32;0.32;;;;;;;2.48;62.60;93318.91;5053403;28;20040;-48
2021/04/02 00:24:03;;;;;;;0.52;0.52;;;;;;;2.52;61.86;93313.94;5053260;28;20040;-45
2021/04/02 00:26:28;;;;;;;1.10;1.10;;;;;;;2.58;61.84;93315.41;5053216;28;20163;-45
2021/04/02 00:28:55;;;;;;;1.55;0.85;;;;;;;2.40;62.02;93312.50;5052892;28;20383;-46
2021/04/02 00:31:21;;;;;;;0.55;0.55;;;;;;;2.19;63.22;93309.31;5053158;28;20112;-44
2021/04/02 00:33:47;;;;;;;0.85;0.85;;;;;;;2.25;63.33;93307.34;5051849;28;20028;-47
2021/04/02 00:36:12;;;;;;;0.60;0.60;;;;;;;2.45;62.76;93304.31;5052805;28;20029;-44
2021/04/02 00:38:38;;;;;;;0.20;0.20;;;;;;;2.40;62.33;93307.06;5053181;28;20426;-49
2021/04/02 00:41:04;;;;;;;2.22;2.13;;;;;;;2.41;62.18;93298.38;5052514;28;20086;-46
2021/04/02 00:43:33;;;;;;;0.30;0.30;;;;;;;2.38;62.00;93299.38;5052713;28;20070;-47
2021/04/02 00:45:59;;;;;;;4.10;1.15;;;;;;;2.36;61.57;93299.13;5052654;28;20504;-48
2021/04/02 00:48:25;;;;;;;0.68;0.68;;;;;;;2.06;62.94;93295.47;5052768;28;20037;-45
2021/04/02 00:50:56;;;;;;;0.73;0.73;;;;;;;2.20;62.74;93297.19;5051603;28;20035;-48
2021/04/02 00:53:24;;;;;;;0.30;0.30;;;;;;;2.05;64.16;93292.03;5052705;28;20033;-45
2021/04/02 00:55:50;;;;;;;0.65;0.65;;;;;;;2.26;63.90;93295.19;5052730;28;20079;-48
2021/04/02 00:58:20;;;;;;;1.15;1.15;;;;;;;2.26;63.50;93287.78;5052468;28;20057;-46
2021/04/02 01:00:46;;;;;;;0.40;0.40;;;;;;;2.33;63.39;93289.25;5052668;28;20021;-48
2021/04/02 01:03:11;;;;;;;0.32;0.32;;;;;;;2.34;62.82;93276.38;5052644;28;20496;-46
2021/04/02 01:05:40;;;;;;;0.40;0.40;;;;;;;2.48;62.72;93281.53;5052157;28;20530;-45
2021/04/02 01:08:12;;;;;;;2.33;1.65;;;;;;;2.40;62.21;93277.09;5052430;28;20021;-45
2021/04/02 01:10:38;;;;;;;0.40;0.40;;;;;;;2.28;62.87;93268.94;5051410;28;20068;-45
2021/04/02 01:13:12;;;;;;;0.20;0.20;;;;;;;2.45;62.74;93271.59;5052328;28;20061;-46
2021/04/02 01:15:49;;;;;;;0.60;0.60;;;;;;;2.45;62.43;93257.28;5052406;28;20036;-46
2021/04/02 01:18:20;;;;;;;1.10;1.10;;;;;;;2.39;62.22;93264.69;5052138;28;20021;-45
2021/04/02 01:20:49;;;;;;;0.88;0.88;;;;;;;2.49;62.75;93257.75;5034113;28;20025;-47
2021/04/02 01:23:18;;;;;;;0.40;0.40;;;;;;;2.44;62.90;93261.22;5034475;28;20072;-47
2021/04/02 01:26:07;;;;;;;0.57;0.57;;;;;;;2.44;62.29;93259.25;5034233;28;20033;-46
2021/04/02 01:29:00;;;;;;;0.30;0.30;;;;;;;2.21;63.58;93257.81;5034019;28;20029;-46
2021/04/02 01:31:26;;;;;;;0.20;0.20;;;;;;;1.94;64.53;93245.75;5051825;28;20033;-45
2021/04/02 01:33:56;;;;;;;0.98;0.85;;;;;;;2.09;63.20;93251.66;5034093;28;20033;-45
2021/04/02 01:36:22;;;;;;;0.73;0.73;;;;;;;2.19;63.87;93249.41;5051515;28;20033;-47
2021/04/02 01:38:48;;;;;;;1.75;1.10;;;;;;;2.22;63.25;93246.44;5022521;28;20036;-45
2021/04/02 01:41:14;;;;;;;0.45;0.45;;;;;;;2.30;63.13;93244.66;5020136;28;20037;-46
2021/04/02 01:43:43;;;;;;;1.38;1.35;;;;;;;2.31;63.06;93239.97;5023651;28;20539;-47
2021/04/02 01:46:10;;;;;;;1.77;1.55;;;;;;;2.08;63.69;93233.13;5023430;28;20043;-47
2021/04/02 01:48:37;;;;;;;0.98;0.63;;;;;;;2.10;63.53;93230.63;5027122;28;20025;-44
2021/04/02 01:51:04;;;;;;;0.63;0.63;;;;;;;2.13;63.96;93230.38;5023568;28;20572;-44
2021/04/02 01:53:35;;;;;;;2.42;1.73;;;;;;;2.12;63.43;93230.88;5022392;28;20052;-46
2021/04/02 01:56:01;;;;;;;1.60;1.50;;;;;;;2.14;63.41;93225.66;5041183;28;20056;-44
2021/04/02 01:58:27;;;;;;;1.38;1.38;;;;;;;2.04;62.98;93213.53;5046612;28;20056;-45
2021/04/02 02:00:58;;;;;;;0.63;0.63;;;;;;;1.82;63.26;93219.06;5022111;28;20064;-45
2021/04/02 02:03:24;;;;;;;1.08;1.00;;;;;;;1.73;64.08;93219.31;5022767;28;20024;-44
2021/04/02 02:05:52;;;;;;;0.20;0.20;;;;;;;1.58;64.34;93211.44;5023926;28;20508;-46
2021/04/02 02:08:18;;;;;;;0.20;0.20;;;;;;;1.49;64.92;93208.97;5030530;28;20025;-45
2021/04/02 02:10:46;;;;;;;0.68;0.68;;;;;;;1.70;64.68;93215.63;5023099;28;20036;-46
2021/04/02 02:13:13;;;;;;;1.08;1.08;;;;;;;1.86;64.06;93203.97;5041712;28;20025;-46
2021/04/02 02:15:39;;;;;;;1.10;0.68;;;;;;;1.88;64.07;93204.22;5039884;28;20043;-45
2021/04/02 02:18:08;;;;;;;0.47;0.47;;;;;;;1.83;63.72;93215.09;5034937;28;20091;-46
2021/04/02 02:20:37;;;;;;;0.22;0.22;;;;;;;1.77;63.88;93209.66;5030340;28;20025;-45
2021/04/02 02:23:03;;;;;;;1.10;1.05;;;;;;;1.87;64.03;93207.41;5030586;28;20022;-47
2021/04/02 02:25:29;;;;;;;1.65;1.55;;;;;;;1.93;64.12;93208.13;5031114;28;20516;-45
2021/04/02 02:27:55;;;;;;;1.80;1.70;;;;;;;1.67;64.52;93205.72;5031228;28;20056;-45
2021/04/02 02:30:24;;;;;;;0.88;0.88;;;;;;;1.80;64.86;93207.94;5038889;28;20098;-46
2021/04/02 02:32:51;;;;;;;0.73;0.73;;;;;;;1.95;64.66;93200.94;5050697;28;20437;-44
2021/04/02 02:35:16;;;;;;;1.10;1.10;;;;;;;1.42;64.43;93174.09;5050964;28;20024;-45
2021/04/02 02:37:44;;;;;;;0.28;0.28;;;;;;;1.85;64.30;93210.63;5050673;28;20039;-44
2021/04/02 02:40:15;;;;;;;0.52;0.52;;;;;;;1.98;63.25;93204.66;5050853;28;20081;-44
2021/04/02 02:42:41;;;;;;;0.95;0.95;;;;;;;1.94;64.08;93212.34;5050485;28;20125;-46
2021/04/02 02:45:10;;;;;;;2.85;1.83;;;;;;;1.78;64.35;93208.41;5050495;28;20116;-47
2021/04/02 02:47:35;;;;;;;1.30;1.15;;;;;;;1.90;64.72;93214.59;5050770;28;20036;-45
2021/04/02 02:50:07;;;;;;;0.80;0.80;;;;;;;1.89;64.72;93210.38;5050803;28;20044;-45
2021/04/02 02:52:34;;;;;;;0.60;0.60;;;;;;;1.88;65.20;93217.06;5032762;28;20037;-45
2021/04/02 02:55:00;;;;;;;1.13;1.13;;;;;;;1.67;65.58;93218.59;5049646;28;20099;-47
2021/04/02 02:57:26;;;;;;;0.85;0.85;;;;;;;1.62;65.11;93213.88;5032135;28;20028;-48
2021/04/02 02:59:52;;;;;;;0.50;0.50;;;;;;;1.61;65.42;93221.31;5032970;28;20021;-46
2021/04/02 03:02:18;;;;;;;0.80;0.80;;;;;;;1.78;65.05;93216.56;5032571;28;20107;-48
2021/04/02 03:04:45;;;;;;;1.10;1.08;;;;;;;1.78;64.38;93210.38;5050184;28;20064;-47
2021/04/02 03:07:11;;;;;;;1.77;1.67;;;;;;;1.75;64.59;93205.97;5032488;28;20025;-47
2021/04/02 03:09:39;;;;;;;1.50;1.40;;;;;;;1.62;65.06;93203.75;5050675;28;20104;-49
2021/04/02 03:12:05;;;;;;;2.05;1.95;;;;;;;1.62;65.27;93203.75;5032673;28;20029;-45
2021/04/02 03:14:31;;;;;;;0.85;0.80;;;;;;;1.70;64.79;93209.41;5035178;28;20497;-48
2021/04/02 03:16:57;;;;;;;1.10;1.10;;;;;;;1.81;64.78;93210.16;5054258;28;20021;-45
2021/04/02 03:19:25;;;;;;;1.08;0.98;;;;;;;1.54;65.55;93206.22;5036708;28;20028;-44
2021/04/02 03:21:52;;;;;;;0.85;0.85;;;;;;;1.72;66.55;93209.66;5054412;28;20025;-46
2021/04/02 03:24:17;;;;;;;0.63;0.63;;;;;;;1.64;64.78;93214.13;5036661;28;20017;-47
2021/04/02 03:26:48;;;;;;;0.30;0.30;;;;;;;1.60;65.29;93208.97;5054198;28;20028;-46
2021/04/02 03:29:14;;;;;;;0.52;0.52;;;;;;;1.32;65.82;93206.22;5035022;28;20147;-48
2021/04/02 03:31:40;;;;;;;0.50;0.50;;;;;;;1.50;66.21;93196.81;5023803;28;20512;-47
2021/04/02 03:34:08;;;;;;;1.23;1.23;;;;;;;1.60;65.18;93200.78;5034029;28;20036;-46
2021/04/02 03:36:35;;;;;;;2.28;1.17;;;;;;;1.69;65.53;93200.50;5034045;28;20490;-45
2021/04/02 03:39:01;;;;;;;1.75;1.65;;;;;;;1.72;64.71;93196.81;5016331;28;20510;-50
2021/04/02 03:41:32;;;;;;;2.60;2.38;;;;;;;1.50;65.13;93185.94;5016359;28;20029;-48
2021/04/02 03:43:59;;;;;;;2.13;2.03;;;;;;;1.29;65.89;93180.03;5033840;28;20830;-47
2021/04/02 03:46:26;;;;;;;0.73;0.73;;;;;;;1.33;66.38;93194.13;5016236;28;20057;-47
2021/04/02 03:48:53;;;;;;;1.80;1.70;;;;;;;1.43;65.78;93186.44;5016010;28;20025;-45
2021/04/02 03:51:21;;;;;;;1.40;1.40;;;;;;;1.51;65.24;93190.91;5028820;28;20525;-46
2021/04/02 03:54:06;;;;;;;2.58;1.88;;;;;;;1.66;65.16;93187.91;5036135;28;20473;-47
2021/04/02 03:56:34;;;;;;;1.25;1.25;;;;;;;1.63;65.30;93183.44;5053038;28;20033;-44
2021/04/02 03:59:01;;;;;;;2.42;1.13;;;;;;;1.47;65.38;93178.78;5036121;28;20409;-46
2021/04/02 04:01:30;;;;;;;1.13;1.02;;;;;;;1.49;65.01;93174.31;5052551;28;20017;-45
2021/04/02 04:03:56;;;;;;;;;;;;;;;1.48;65.72;93174.81;5053962;28;20045;-48
2021/04/02 04:06:23;;;;;;;3.88;1.50;;;;;;;1.46;66.39;93178.03;5035727;28;20393;-46
2021/04/02 04:08:51;;;;;;;4.88;1.92;;;;;;;1.60;65.69;93170.88;5035596;28;20643;-49
2021/04/02 04:11:17;;;;;;;1.58;1.35;;;;;;;1.58;65.91;93175.31;5035643;28;20020;-47
2021/04/02 04:13:46;;;;;;;0.90;0.88;;;;;;;1.69;65.67;93167.13;5035344;28;20593;-49
2021/04/02 04:16:16;;;;;;;2.13;1.92;;;;;;;1.60;65.30;93173.59;5053447;28;20017;-45
2021/04/02 04:18:45;;;;;;;1.00;1.00;;;;;;;1.62;65.12;93187.44;5035496;28;20058;-49
2021/04/02 04:21:11;;;;;;;2.70;2.50;;;;;;;1.58;65.39;93175.31;5028167;28;20017;-47
2021/04/02 04:23:38;;;;;;;1.63;1.52;;;;;;;1.47;65.96;93184.97;5043402;28;20022;-49
2021/04/02 04:26:05;;;;;;;0.52;0.52;;;;;;;1.45;66.25;93181.28;5031028;28;20025;-45
2021/04/02 04:28:31;;;;;;;1.55;1.48;;;;;;;1.49;65.67;93187.91;5049857;28;20022;-46
2021/04/02 04:31:01;;;;;;;1.85;1.75;;;;;;;1.32;65.66;93172.88;5046971;28;20075;-44
2021/04/02 04:33:27;;;;;;;1.80;1.55;;;;;;;1.36;66.42;93182.28;5054499;28;20061;-45
2021/04/02 04:35:53;;;;;;;0.88;0.88;;;;;;;1.29;66.85;93176.56;5055352;28;20047;-46
2021/04/02 04:38:20;;;;;;;4.50;1.08;;;;;;;1.55;66.42;93187.94;5046062;28;20016;-45
2021/04/02 04:40:46;;;;;;;2.70;2.45;;;;;;;1.69;65.84;93186.19;5043164;28;20547;-43
2021/04/02 04:43:13;;;;;;;2.00;1.90;;;;;;;1.59;66.36;93188.41;5034232;28;20103;-46
2021/04/02 04:45:38;;;;;;;2.58;2.47;;;;;;;1.75;66.97;93186.91;5034471;28;20521;-46
2021/04/02 04:48:05;;;;;;;1.92;1.75;;;;;;;1.88;66.84;93189.84;5028880;28;20037;-45
2021/04/02 04:50:30;;;;;;;6.93;3.30;;;;;;;1.99;64.78;93185.09;5018682;28;20029;-47
2021/04/02 04:53:01;;;;;;;1.67;1.60;;;;;;;1.94;65.37;93190.56;5050505;28;20401;-44
2021/04/02 04:55:28;;;;;;;3.10;2.33;;;;;;;2.11;64.46;93189.28;5032727;28;20028;-44
2021/04/02 04:57:54;;;;;;;1.33;1.20;;;;;;;2.19;65.13;93173.13;5046213;28;20108;-45
2021/04/02 05:00:21;;;;;;;3.28;2.92;;;;;;;2.20;63.72;93171.91;5051985;28;20409;-44
2021/04/02 05:02:47;;;;;;;1.73;1.63;;;;;;;2.30;64.99;93178.53;5050693;28;20059;-43
2021/04/02 05:05:19;;;;;;;1.65;1.55;;;;;;;2.36;64.64;93179.25;5027559;28;20514;-45
2021/04/02 05:07:46;;;;;;;2.97;2.78;;;;;;;2.51;63.80;93171.53;5042610;28;20021;-43
2021/04/02 05:22:24;;;;;;;3.05;2.85;;;;;;;3.60;60.74;93176.69;5118294;27;20378;-57
2021/04/02 05:24:50;;;;;;;2.78;2.50;;;;;;;3.54;61.04;93178.72;5126131;27;20037;-55
2021/04/02 05:27:15;;;;;;;5.30;4.57;;;;;;;3.40;61.71;93184.56;5121022;27;20023;-53
2021/04/02 05:29:41;;;;;;;3.45;3.28;;;;;;;3.55;60.53;93174.03;5124138;27;20113;-54
2021/04/02 05:32:06;;;;;;;2.05;1.95;;;;;;;3.54;60.98;93175.25;5117817;28;20418;-53
2021/04/02 05:34:32;;;;;;;5.00;3.03;;;;;;;3.60;61.11;93187.59;5125189;27;20019;-55
2021/04/02 05:36:57;;;;;;;1.02;1.02;;;;;;;3.58;61.65;93181.91;5124343;27;20429;-56
2021/04/02 05:39:23;;;;;;;1.58;1.55;;;;;;;3.66;60.72;93180.09;5111116;28;20019;-58
2021/04/02 05:42:05;;;;;;;4.82;3.55;;;;;;;3.99;59.84;93178.28;5125738;27;20034;-53
2021/04/02 05:44:33;;;;;;;3.40;3.10;;;;;;;3.97;59.32;93169.88;5125300;27;20027;-59
2021/04/02 05:47:03;;;;;;;3.13;2.80;;;;;;;4.38;58.53;93173.13;5125416;27;20039;-59
2021/04/02 05:49:29;;;;;;;2.33;2.13;;;;;;;4.51;58.63;93159.53;5125565;27;20157;-58
2021/04/02 05:51:56;;;;;;;5.30;3.90;;;;;;;4.89;56.83;93163.78;5126064;27;20535;-58
2021/04/02 05:54:34;;;;;;;6.43;5.13;;;;;;;5.11;56.99;93166.16;5125071;27;20034;-58
2021/04/02 05:57:00;;;;;;;14.55;4.40;;;;;;;5.25;55.77;93159.50;5125505;27;20107;-58
2021/04/02 05:59:26;;;;;;;2.97;2.78;;;;;;;5.43;55.08;93163.44;5123011;28;20065;-58
2021/04/02 06:01:51;;;;;;;4.72;4.32;;;;;;;5.53;54.24;93166.50;5105090;28;20028;-57
2021/04/02 06:04:17;;;;;;;5.13;4.70;;;;;;;5.45;55.60;93152.72;5104802;28;20388;-58
2021/04/02 06:06:45;;;;;;;6.30;3.97;;;;;;;5.66;55.30;93164.56;5112102;28;20716;-57
2021/04/02 06:09:11;;;;;;;2.65;2.47;;;;;;;6.11;55.17;93164.53;5119026;28;20023;-56
2021/04/02 06:11:37;;;;;;;1.42;1.33;;;;;;;6.49;53.42;93165.78;5124522;27;20018;-56
2021/04/02 06:14:03;;;;;;;3.40;3.15;;;;;;;7.07;51.98;93168.31;5124954;27;20023;-57
2021/04/02 06:16:28;;;;;;;3.50;3.15;;;;;;;7.83;49.64;93145.00;5124815;27;20035;-58
2021/04/02 06:19:07;;;;;;;3.55;3.25;;;;;;;8.75;48.57;93145.03;5126096;27;20030;-57
2021/04/02 06:21:47;;;;;;;3.83;3.53;;;;;;;9.94;46.87;93147.84;5121942;27;20067;-58
2021/04/02 06:24:14;;;;;;;1.80;1.70;;;;;;;10.57;44.66;93149.44;5111371;28;20055;-51
2021/04/02 06:26:40;;;;;;;2.80;2.58;;;;;;;10.95;43.13;93148.59;5110873;28;20068;-58
2021/04/02 06:29:05;;;;;;;2.20;2.05;;;;;;;11.31;42.26;93151.75;5109646;28;20477;-59
2021/04/02 06:31:35;;;;;;;1.98;1.80;;;;;;;11.87;41.01;93148.28;5109989;28;20549;-57
2021/04/02 06:34:05;;;;;;;0.85;0.85;;;;;;;12.26;39.29;93148.75;5111017;28;20139;-58
2021/04/02 06:36:30;;;;;;;0.98;0.95;;;;;;;12.61;38.35;93142.66;5110630;28;20106;-56
2021/04/02 06:39:03;;;;;;;1.10;1.10;;;;;;;12.96;37.31;93146.16;5110772;28;20114;-55
2021/04/02 06:41:30;;;;;;;1.48;1.42;;;;;;;13.23;36.34;93132.38;5111450;28;20024;-59
2021/04/02 06:43:57;;;;;;;1.15;1.05;;;;;;;13.80;36.11;93143.78;5111441;28;20092;-58
2021/04/02 06:46:24;;;;;;;2.13;1.70;;;;;;;14.31;35.25;93142.84;5110985;28;20100;-53
2021/04/02 06:48:50;;;;;;;3.90;2.80;;;;;;;14.50;36.52;93148.47;5109776;28;20096;-51
2021/04/02 06:51:17;;;;;;;2.75;2.55;;;;;;;14.82;34.98;93148.06;5110514;28;20043;-53
2021/04/02 06:53:44;;;;;;;2.70;2.28;;;;;;;15.31;35.50;93132.13;5104279;28;20032;-53
2021/04/02 06:56:12;;;;;;;2.72;2.53;;;;;;;16.08;34.46;93146.59;5101361;28;20019;-54
2021/04/02 06:58:41;;;;;;;3.88;2.80;;;;;;;16.86;32.81;93140.03;5105789;28;20016;-54
2021/04/02 07:01:07;;;;;;;2.60;2.40;;;;;;;17.51;32.10;93131.03;5106981;28;20023;-54
2021/04/02 07:03:34;;;;;;;1.20;1.15;;;;;;;18.68;30.03;93136.16;5106672;28;20102;-52
2021/04/02 07:06:01;;;;;;;1.30;1.20;;;;;;;19.94;27.78;93133.56;5110574;28;20129;-51
2021/04/02 07:08:27;;;;;;;0.60;0.60;;;;;;;20.93;27.26;93134.63;5105852;28;20031;-51
2021/04/02 07:10:55;;;;;;;1.60;1.48;;;;;;;21.84;24.12;93136.34;5110239;28;20019;-56
2021/04/02 07:13:21;;;;;;;0.90;0.90;;;;;;;22.31;23.20;93137.13;5109772;28;20027;-57
2021/04/02 07:15:47;;;;;;;1.15;1.05;;;;;;;23.08;22.48;93123.66;5111757;28;20273;-57
2021/04/02 07:18:13;;;;;;;0.90;0.90;;;;;;;23.33;22.22;93129.72;5111061;28;20094;-57
2021/04/02 07:20:38;;;;;;;9.43;4.72;;;;;;;22.72;22.23;93130.53;5110367;28;20526;-54
2021/04/02 07:23:04;;;;;;;5.20;4.22;;;;;;;23.33;22.48;93129.72;5112546;28;20024;-56
2021/04/02 07:25:31;;;;;;;3.35;1.67;;;;;;;24.02;19.69;93129.66;5112578;28;20080;-56
2021/04/02 07:27:57;;;;;;;1.02;0.85;;;;;;;24.20;19.07;93135.31;5112503;28;20035;-56
2021/04/02 07:30:24;;;;;;;1.85;1.23;;;;;;;23.73;19.45;93132.72;5111710;28;20387;-55
2021/04/02 07:32:50;;;;;;;0.50;0.38;;;;;;;24.74;19.34;93128.91;5101728;28;20030;-56
2021/04/02 07:35:22;;;;;;;2.00;1.70;;;;;;;25.33;18.57;93128.91;5093730;28;20114;-58
2021/04/02 07:37:50;;;;;;;0.57;0.45;;;;;;;25.33;16.53;93126.06;5104061;28;20023;-57
2021/04/02 07:40:17;;;;;;;2.38;0.98;;;;;;;25.47;17.75;93124.47;5095522;28;20504;-55
2021/04/02 07:42:48;;;;;;;2.80;0.77;;;;;;;25.92;17.51;93128.78;5112316;28;20487;-55
2021/04/02 07:45:18;;;;;;;0.57;0.57;;;;;;;25.85;16.67;93115.81;5112208;28;20023;-55
2021/04/02 07:47:50;;;;;;;1.20;1.10;;;;;;;25.63;17.19;93117.91;5111707;27;20118;-55
2021/04/02 07:50:15;;;;;;;1.05;0.95;;;;;;;24.92;18.54;93109.09;5111855;28;20453;-56
2021/04/02 07:52:43;;;;;;;1.35;1.25;;;;;;;25.51;17.63;93121.06;5110342;28;20028;-57
2021/04/02 07:55:16;;;;;;;0.77;0.77;;;;;;;23.86;17.75;93120.56;5110654;28;20039;-56
2021/04/02 07:57:54;;;;;;;2.08;1.33;;;;;;;23.05;20.46;93122.84;5105946;28;20110;-56
2021/04/02 08:00:24;;;;;;;1.08;0.93;;;;;;;23.50;20.21;93114.19;5106953;28;20038;-56
2021/04/02 08:03:19;;;;;;;0.52;0.52;;;;;;;25.23;18.92;93122.91;5106732;28;20158;-54
2021/04/02 08:05:55;;;;;;;1.52;1.42;;;;;;;25.84;16.35;93115.06;5096972;28;20147;-53
2021/04/02 08:08:23;;;;;;;1.73;1.05;;;;;;;25.01;17.34;93100.25;5101530;28;20027;-55
2021/04/02 08:11:09;;;;;;;0.55;0.50;;;;;;;24.18;18.73;93119.03;5108476;28;20039;-53
2021/04/02 08:13:47;;;;;;;0.65;0.57;;;;;;;25.28;19.24;93113.16;5099117;28;20031;-53
2021/04/02 08:16:26;;;;;;;1.20;0.80;;;;;;;26.71;16.62;93109.25;5109836;28;20074;-54
2021/04/02 08:19:16;;;;;;;1.08;1.00;;;;;;;27.19;16.32;93110.66;5108642;28;20031;-56
2021/04/02 08:22:05;;;;;;;4.07;2.42;;;;;;;27.29;16.80;93108.06;5109453;28;20059;-55
2021/04/02 08:24:31;;;;;;;;;;;;;;;28.27;16.16;93104.19;5111097;28;20028;-57
2021/04/02 08:26:57;;;;;;;3.13;0.73;;;;;;;28.54;15.08;93100.50;5110983;28;19915;-56
2021/04/02 08:29:24;;;;;;;1.17;0.95;;;;;;;28.56;16.44;93093.44;5111491;28;20054;-56
2021/04/02 08:31:54;;;;;;;2.08;1.27;;;;;;;29.11;17.32;93104.56;5111094;28;20023;-55
2021/04/02 08:34:23;;;;;;;0.88;0.88;;;;;;;29.59;15.41;93076.31;5110339;28;20519;-53
2021/04/02 08:36:51;;;;;;;2.03;1.85;;;;;;;28.36;16.31;93099.41;5111222;28;20027;-54
2021/04/02 08:39:18;;;;;;;1.38;1.33;;;;;;;28.65;16.98;93095.09;5110391;28;20526;-51
2021/04/02 08:41:44;;;;;;;0.80;0.80;;;;;;;29.77;15.95;93100.16;5111103;28;20015;-54
2021/04/02 08:44:09;;;;;;;2.50;1.63;;;;;;;29.83;15.54;93091.00;5110137;28;20050;-55
2021/04/02 08:46:38;;;;;;;1.33;1.17;;;;;;;30.53;16.75;93091.41;5110684;28;20063;-55
2021/04/02 08:49:05;;;;;;;1.17;1.08;;;;;;;30.93;15.23;93091.94;5110819;28;20141;-55
2021/04/02 08:51:30;;;;;;;1.15;0.82;;;;;;;30.69;15.14;93088.75;5110905;28;20412;-55
2021/04/02 08:53:56;;;;;;;1.92;1.60;;;;;;;30.63;14.86;93083.69;5110346;28;20039;-52
2021/04/02 08:56:23;;;;;;;1.48;1.38;;;;;;;31.62;14.16;93098.47;5109185;28;20026;-55
2021/04/02 08:58:49;;;;;;;1.05;0.82;;;;;;;31.48;15.00;93099.03;5110670;28;20031;-55
2021/04/02 09:01:20;;;;;;;1.15;1.05;;;;;;;32.06;13.68;93099.59;5110108;28;20026;-52
2021/04/02 09:03:45;;;;;;;0.88;0.85;;;;;;;32.59;14.14;93089.31;5096725;28;20581;-54
2021/04/02 09:06:12;;;;;;;1.92;1.65;;;;;;;32.65;13.17;93085.75;5098055;28;20070;-53
2021/04/02 09:08:38;;;;;;;1.17;1.05;;;;;;;32.59;13.65;93082.88;5100730;28;20020;-54
2021/04/02 09:11:11;;;;;;;3.05;2.15;;;;;;;31.78;14.10;93093.63;5101710;28;20494;-54
2021/04/02 09:13:40;;;;;;;3.47;2.75;;;;;;;32.25;14.33;93080.47;5100137;28;20431;-57
2021/04/02 09:16:12;;;;;;;9.52;7.97;;;;;;;32.64;14.55;93076.47;5098745;28;20099;-57
2021/04/02 09:18:49;;;;;;;4.65;2.75;;;;;;;32.64;13.31;93084.31;5098800;28;20016;-57
2021/04/02 09:21:15;;;;;;;2.38;1.65;;;;;;;32.72;13.36;93062.22;5099740;28;20063;-57
2021/04/02 09:23:41;;;;;;;0.60;0.60;;;;;;;31.69;13.79;93077.09;5100755;28;20122;-57
2021/04/02 09:26:09;;;;;;;0.95;0.65;;;;;;;31.20;14.21;93085.16;5094331;28;20141;-57
2021/04/02 09:28:37;;;;;;;1.60;1.50;;;;;;;31.64;14.94;93067.78;5094134;28;20028;-57
2021/04/02 09:31:29;;;;;;;1.10;1.00;;;;;;;31.62;13.99;93064.22;5093218;28;20107;-57
2021/04/02 09:33:58;;;;;;;1.02;0.93;;;;;;;31.00;15.62;93064.94;5093951;28;20032;-58
2021/04/02 09:36:25;;;;;;;0.93;0.93;;;;;;;31.68;14.27;93056.44;5094815;28;20015;-58
2021/04/02 09:39:05;;;;;;;6.60;2.63;;;;;;;31.02;15.14;93064.97;5095557;28;20032;-57
2021/04/02 09:41:31;;;;;;;1.27;1.17;;;;;;;30.80;16.39;93069.66;5100526;28;20118;-57
2021/04/02 09:44:05;;;;;;;1.42;1.33;;;;;;;30.82;15.10;93053.28;5097434;28;20027;-58
2021/04/02 09:46:36;;;;;;;1.27;1.17;;;;;;;31.21;14.97;93063.03;5099969;28;20101;-57
2021/04/02 09:49:05;;;;;;;1.25;1.15;;;;;;;31.73;15.53;93057.19;5101065;28;20051;-58
2021/04/02 09:51:30;;;;;;;;;;;;;;;32.16;14.46;93059.69;5096767;28;20022;-57
2021/04/02 09:53:56;;;;;;;0.57;0.57;;;;;;;31.71;15.03;93057.13;5097886;28;19919;-57
2021/04/02 09:56:22;;;;;;;0.93;0.73;;;;;;;31.45;15.33;93046.19;5096051;28;20052;-57
2021/04/02 09:58:48;;;;;;;1.67;1.10;;;;;;;31.09;16.03;93049.38;5102176;28;20024;-56
2021/04/02 10:01:13;;;;;;;0.73;0.68;;;;;;;30.94;16.35;93041.34;5100794;28;20016;-56
2021/04/02 10:03:39;;;;;;;1.98;1.50;;;;;;;31.09;15.60;93020.84;5099112;28;20042;-58
2021/04/02 10:06:05;;;;;;;1.23;1.13;;;;;;;31.43;15.45;93037.63;5097897;28;20085;-58
2021/04/02 10:08:30;;;;;;;18.67;1.13;;;;;;;30.44;16.21;93025.03;5091613;28;20024;-58
2021/04/02 10:10:56;;;;;;;1.15;1.00;;;;;;;30.89;15.64;93043.44;5095085;28;20027;-58
2021/04/02 10:13:21;;;;;;;0.95;0.95;;;;;;;31.16;15.68;93033.06;5112274;28;20106;-58
2021/04/02 10:15:46;;;;;;;3.75;1.17;;;;;;;30.89;16.63;93049.13;5112022;28;20043;-58
2021/04/02 10:18:12;;;;;;;1.50;1.40;;;;;;;30.82;16.25;93044.75;5096874;28;20515;-57
2021/04/02 10:20:37;;;;;;;1.50;1.00;;;;;;;30.81;16.09;93051.13;5089998;28;20039;-58
2021/04/02 10:23:03;;;;;;;1.90;1.35;;;;;;;30.95;16.20;93037.09;5090316;28;20534;-58
2021/04/02 10:25:28;;;;;;;0.82;0.80;;;;;;;30.83;16.65;93051.16;5110975;28;20031;-58
2021/04/02 10:27:54;;;;;;;2.15;1.50;;;;;;;30.44;16.85;93047.09;5099148;28;20046;-58
2021/04/02 10:30:20;;;;;;;1.25;1.00;;;;;;;30.33;16.85;93039.81;5091047;28;20020;-58
2021/04/02 10:32:45;;;;;;;1.40;1.27;;;;;;;30.25;17.32;93040.41;5101233;28;20046;-58
2021/04/02 10:35:11;;;;;;;1.23;1.08;;;;;;;30.32;16.97;93049.78;5107862;28;20027;-58
2021/04/02 10:37:37;;;;;;;0.85;0.85;;;;;;;29.57;17.81;93027.91;5110207;28;20036;-57
2021/04/02 10:40:04;;;;;;;1.60;1.50;;;;;;;29.31;18.80;93024.63;5107509;28;20077;-58
2021/04/02 10:42:29;;;;;;;9.00;2.00;;;;;;;29.05;18.92;93028.41;5107185;28;20461;-58
2021/04/02 10:44:54;;;;;;;2.75;1.30;;;;;;;29.28;19.57;93035.25;5110665;27;20080;-57
2021/04/02 10:47:20;;;;;;;2.95;2.22;;;;;;;28.96;18.58;93032.50;5109081;28;20023;-58
2021/04/02 10:49:45;;;;;;;0.30;0.30;;;;;;;28.60;18.72;93033.91;5109920;28;20035;-58
2021/04/02 10:52:11;;;;;;;1.58;1.48;;;;;;;27.27;20.85;93037.16;5108144;28;20032;-58
2021/04/02 10:54:37;;;;;;;0.98;0.75;;;;;;;27.05;21.58;93042.22;5110417;28;20028;-58
2021/04/02 10:57:03;;;;;;;1.48;1.38;;;;;;;27.58;20.55;93041.50;5090165;28;20028;-56
2021/04/02 10:59:28;;;;;;;1.40;1.30;;;;;;;26.99;21.02;93039.25;5090135;28;20047;-48
2021/04/02 11:01:54;;;;;;;0.70;0.70;;;;;;;26.17;22.18;93040.44;5089540;28;20024;-56
2021/04/02 11:04:19;;;;;;;4.50;1.48;;;;;;;25.54;22.97;93052.63;5107278;28;20024;-56
2021/04/02 11:06:44;;;;;;;1.00;0.88;;;;;;;24.36;23.75;93052.03;5109009;28;20047;-56
2021/04/02 11:09:10;;;;;;;1.45;1.35;;;;;;;23.43;25.49;93053.34;5094748;28;20152;-55
2021/04/02 11:11:35;;;;;;;2.20;1.75;;;;;;;22.90;25.70;93058.84;5090093;28;20028;-54
2021/04/02 11:14:01;;;;;;;0.93;0.93;;;;;;;22.22;27.22;93053.75;5089518;28;20408;-58
2021/04/02 11:16:26;;;;;;;2.35;2.15;;;;;;;21.97;28.06;93061.72;5089914;28;20089;-58
2021/04/02 11:18:52;;;;;;;1.98;1.55;;;;;;;22.15;27.64;93059.75;5089488;28;20024;-58
2021/04/02 11:21:17;;;;;;;2.60;1.15;;;;;;;21.35;28.47;93025.78;5101665;28;20042;-59
2021/04/02 11:23:42;;;;;;;0.35;0.35;;;;;;;21.54;28.65;93056.19;5110385;28;20503;-58
2021/04/02 11:26:08;;;;;;;0.90;0.90;;;;;;;21.53;30.02;93047.03;5110271;28;20019;-59
2021/04/02 11:28:33;;;;;;;4.13;2.25;;;;;;;20.85;30.96;93061.25;5110607;28;20080;-59
2021/04/02 11:30:59;;;;;;;1.27;0.93;;;;;;;20.73;31.10;93055.03;5107552;28;20613;-58
2021/04/02 11:33:25;;;;;;;3.60;2.47;;;;;;;20.57;31.13;93056.31;5109921;28;20059;-59
2021/04/02 11:35:50;;;;;;;0.82;0.82;;;;;;;20.13;32.82;93060.31;5108869;28;20480;-59
2021/04/02 11:38:16;;;;;;;1.48;1.25;;;;;;;19.65;34.19;93056.38;5111057;28;20038;-59
2021/04/02 11:40:41;;;;;;;1.27;1.17;;;;;;;19.42;36.93;93070.50;5110406;27;20023;-58
2021/04/02 11:43:07;;;;;;;1.90;1.10;;;;;;;19.17;38.73;93069.72;5110482;28;20118;-57
2021/04/02 11:45:32;;;;;;;2.63;0.80;;;;;;;19.05;38.92;93067.00;5110289;28;20028;-57
2021/04/02 11:47:58;;;;;;;1.65;1.55;;;;;;;18.64;41.66;93068.81;5110106;28;20031;-58
2021/04/02 11:50:24;;;;;;;2.60;1.38;;;;;;;18.27;42.23;93073.56;5109905;28;20031;-59
2021/04/02 11:52:49;;;;;;;1.38;1.27;;;;;;;18.22;41.96;93077.44;5109955;28;20031;-59
2021/04/02 11:55:15;;;;;;;2.00;0.80;;;;;;;18.13;44.22;93088.16;5100072;28;20089;-59